createdAt,value
2022-09-17T00:01:06.919Z,99.99
2022-09-17T00:02:06.919Z,99.99
2022-09-17T00:03:59.762Z,99.99
2022-09-17T00:04:59.666Z,99.99
2022-09-17T00:07:03.575Z,99.99
2022-09-17T00:08:03.526Z,99.99
2022-09-17T00:10:07.439Z,99.99
2022-09-17T00:11:07.488Z,99.99
2022-09-17T00:13:11.276Z,99.99
2022-09-17T00:14:11.235Z,99.99
2022-09-17T00:16:15.202Z,99.99
2022-09-17T00:17:15.091Z,99.99
2022-09-17T00:19:19.009Z,99.99
2022-09-17T00:20:18.956Z,99.99
2022-09-17T00:22:22.847Z,99.99
2022-09-17T00:23:22.810Z,99.99
2022-09-17T00:25:26.707Z,99.99
2022-09-17T00:26:26.758Z,99.99
2022-09-17T00:28:30.562Z,99.99
2022-09-17T00:29:30.517Z,99.99
2022-09-17T00:31:34.546Z,99.99
2022-09-17T00:32:34.370Z,99.99
2022-09-17T00:34:27.201Z,99.99
2022-09-17T00:35:27.154Z,99.99
2022-09-17T00:37:31.042Z,99.99
2022-09-17T00:38:31.010Z,99.99
2022-09-17T00:40:34.972Z,99.99
2022-09-17T00:41:34.965Z,99.99
2022-09-17T00:43:38.753Z,99.99
2022-09-17T00:44:38.715Z,99.99
2022-09-17T00:46:42.661Z,99.99
2022-09-17T00:47:42.570Z,99.99
2022-09-17T00:49:46.472Z,99.99
2022-09-17T00:50:46.421Z,99.99
2022-09-17T00:52:50.332Z,99.99
2022-09-17T00:53:50.278Z,99.99
2022-09-17T00:55:54.183Z,99.99
2022-09-17T00:56:54.230Z,99.99
2022-09-17T00:58:58.116Z,99.99
2022-09-17T00:59:57.993Z,99.99
2022-09-17T01:02:01.935Z,99.99
2022-09-17T01:03:01.846Z,99.99
2022-09-17T01:05:05.737Z,99.99
2022-09-17T01:06:05.698Z,99.99
2022-09-17T01:08:09.601Z,99.99
2022-09-17T01:09:09.551Z,99.99
2022-09-17T01:11:13.460Z,99.99
2022-09-17T01:12:13.506Z,99.99
2022-09-17T01:14:06.242Z,99.99
2022-09-17T01:15:06.189Z,99.99
2022-09-17T01:17:10.095Z,99.99
2022-09-17T01:18:10.044Z,99.99
2022-09-17T01:20:13.946Z,99.99
2022-09-17T01:21:13.899Z,99.99
2022-09-17T01:23:17.814Z,99.99
2022-09-17T01:24:17.753Z,99.99
2022-09-17T01:26:21.656Z,99.99
2022-09-17T01:27:21.712Z,99.99
2022-09-17T01:29:25.524Z,99.99
2022-09-17T01:30:25.469Z,99.99
2022-09-17T01:32:29.377Z,99.99
2022-09-17T01:33:29.324Z,99.99
2022-09-17T01:35:34.352Z,99.99
2022-09-17T01:36:34.298Z,99.99
2022-09-17T01:38:38.190Z,99.99
2022-09-17T01:39:38.156Z,99.99
2022-09-17T01:41:42.059Z,99.99
2022-09-17T01:42:42.107Z,99.99
2022-09-17T01:44:45.916Z,99.99
2022-09-17T01:45:45.865Z,99.99
2022-09-17T01:47:49.767Z,99.99
2022-09-17T01:48:49.715Z,99.99
2022-09-17T01:50:53.622Z,99.99
2022-09-17T01:51:53.573Z,99.99
2022-09-17T01:53:46.404Z,99.99
2022-09-17T01:54:46.360Z,99.99
2022-09-17T01:56:50.248Z,99.99
2022-09-17T01:57:50.331Z,99.99
2022-09-17T01:59:54.121Z,99.99
2022-09-17T02:00:54.141Z,99.99
2022-09-17T02:02:57.959Z,99.99
2022-09-17T02:03:57.920Z,99.99
2022-09-17T02:06:01.831Z,99.99
2022-09-17T02:07:01.777Z,99.99
2022-09-17T02:09:05.669Z,99.99
2022-09-17T02:10:05.632Z,99.99
2022-09-17T02:12:09.538Z,99.99
2022-09-17T02:13:09.586Z,99.99
2022-09-17T02:15:13.396Z,99.99
2022-09-17T02:16:13.380Z,99.99
2022-09-17T02:18:17.273Z,99.99
2022-09-17T02:19:17.202Z,99.99
2022-09-17T02:21:21.093Z,99.99
2022-09-17T02:22:21.054Z,99.99
2022-09-17T02:24:13.888Z,99.99
2022-09-17T02:25:13.840Z,99.99
2022-09-17T02:27:17.731Z,99.99
2022-09-17T02:28:17.795Z,99.99
2022-09-17T02:30:21.602Z,99.99
2022-09-17T02:31:21.563Z,99.99
2022-09-17T02:33:25.445Z,99.99
2022-09-17T02:34:25.406Z,99.99
2022-09-17T02:36:29.324Z,99.99
2022-09-17T02:37:29.260Z,99.99
2022-09-17T02:39:33.155Z,99.99
2022-09-17T02:40:33.195Z,99.99
2022-09-17T02:42:37.019Z,99.99
2022-09-17T02:43:37.072Z,99.99
2022-09-17T02:45:40.875Z,99.99
2022-09-17T02:46:40.893Z,99.99
2022-09-17T02:48:44.731Z,99.99
2022-09-17T02:49:44.685Z,99.99
2022-09-17T02:51:48.590Z,99.99
2022-09-17T02:52:48.535Z,99.99
2022-09-17T02:54:52.436Z,99.99
2022-09-17T02:55:52.393Z,99.99
2022-09-17T02:57:56.317Z,99.99
2022-09-17T02:58:56.351Z,99.99
2022-09-17T03:01:00.214Z,99.99
2022-09-17T03:02:00.240Z,99.99
2022-09-17T03:03:52.939Z,99.99
2022-09-17T03:04:52.884Z,99.99
2022-09-17T03:06:56.786Z,99.99
2022-09-17T03:07:56.742Z,99.99
2022-09-17T03:10:00.657Z,99.99
2022-09-17T03:11:00.609Z,99.99
2022-09-17T03:13:04.511Z,99.99
2022-09-17T03:14:04.552Z,99.99
2022-09-17T03:16:08.443Z,99.99
2022-09-17T03:17:08.309Z,99.99
2022-09-17T03:19:12.221Z,99.99
2022-09-17T03:20:12.163Z,99.99
2022-09-17T03:22:16.060Z,99.99
2022-09-17T03:23:16.019Z,99.99
2022-09-17T03:25:19.923Z,99.99
2022-09-17T03:26:19.870Z,99.99
2022-09-17T03:28:23.766Z,99.99
2022-09-17T03:29:23.831Z,99.99
2022-09-17T03:31:27.697Z,99.99
2022-09-17T03:32:27.584Z,99.99
2022-09-17T03:34:20.406Z,99.99
2022-09-17T03:35:20.370Z,99.99
2022-09-17T03:37:24.280Z,99.99
2022-09-17T03:38:24.225Z,99.99
2022-09-17T03:40:28.190Z,99.99
2022-09-17T03:41:28.078Z,99.99
2022-09-17T03:43:32.006Z,99.99
2022-09-17T03:44:32.097Z,99.99
2022-09-17T03:46:35.863Z,99.99
2022-09-17T03:47:35.788Z,99.99
2022-09-17T03:49:39.703Z,99.99
2022-09-17T03:50:39.649Z,99.99
2022-09-17T03:52:43.547Z,99.99
2022-09-17T03:53:43.501Z,99.99
2022-09-17T03:55:47.408Z,99.99
2022-09-17T03:56:47.357Z,99.99
2022-09-17T03:58:51.262Z,99.99
2022-09-17T03:59:51.307Z,99.99
2022-09-17T04:01:55.190Z,99.99
2022-09-17T04:02:55.155Z,99.99
2022-09-17T04:04:58.977Z,99.99
2022-09-17T04:05:58.925Z,99.99
2022-09-17T04:08:02.830Z,99.99
2022-09-17T04:09:02.779Z,99.99
2022-09-17T04:11:06.694Z,99.99
2022-09-17T04:12:06.639Z,99.99
2022-09-17T04:13:59.469Z,99.99
2022-09-17T04:14:59.520Z,99.99
2022-09-17T04:17:03.312Z,99.99
2022-09-17T04:18:03.275Z,99.99
2022-09-17T04:20:07.185Z,99.99
2022-09-17T04:21:07.137Z,99.99
2022-09-17T04:23:11.026Z,99.99
2022-09-17T04:24:10.988Z,99.99
2022-09-17T04:26:14.906Z,99.99
2022-09-17T04:27:14.841Z,99.99
2022-09-17T04:29:18.735Z,99.99
2022-09-17T04:30:18.798Z,99.99
2022-09-17T04:32:22.609Z,99.99
2022-09-17T04:33:22.550Z,99.99
2022-09-17T04:35:26.458Z,99.99
2022-09-17T04:36:26.409Z,99.99
2022-09-17T04:38:30.317Z,99.99
2022-09-17T04:39:30.269Z,99.99
2022-09-17T04:41:34.169Z,99.99
2022-09-17T04:42:34.119Z,99.99
2022-09-17T04:44:26.964Z,99.99
2022-09-17T04:45:27.000Z,99.99
2022-09-17T04:47:30.835Z,99.99
2022-09-17T04:48:30.764Z,99.99
2022-09-17T04:50:34.661Z,99.99
2022-09-17T04:51:34.615Z,99.99
2022-09-17T04:53:38.525Z,99.99
2022-09-17T04:54:38.470Z,99.99
2022-09-17T04:56:42.365Z,99.99
2022-09-17T04:57:42.327Z,99.99
2022-09-17T04:59:46.233Z,99.99
2022-09-17T05:00:46.348Z,99.99
2022-09-17T05:02:50.072Z,99.99
2022-09-17T05:03:50.041Z,99.99
2022-09-17T05:05:53.946Z,99.99
2022-09-17T05:06:53.890Z,99.99
2022-09-17T05:08:57.803Z,99.99
2022-09-17T05:09:57.752Z,99.99
2022-09-17T05:12:01.662Z,99.99
2022-09-17T05:13:01.604Z,99.99
2022-09-17T05:15:05.531Z,99.99
2022-09-17T05:16:05.713Z,99.99
2022-09-17T05:18:09.371Z,99.99
2022-09-17T05:19:09.315Z,99.99
2022-09-17T05:21:13.217Z,99.99
2022-09-17T05:22:13.177Z,99.99
2022-09-17T05:24:06.011Z,99.99
2022-09-17T05:25:05.961Z,99.99
2022-09-17T05:27:09.873Z,99.99
2022-09-17T05:28:09.817Z,99.99
2022-09-17T05:30:13.717Z,99.99
2022-09-17T05:31:13.813Z,99.99
2022-09-17T05:33:17.575Z,99.99
2022-09-17T05:34:17.526Z,99.99
2022-09-17T05:36:21.421Z,99.99
2022-09-17T05:37:21.422Z,99.99
2022-09-17T05:39:25.295Z,99.99
2022-09-17T05:40:25.278Z,99.99
2022-09-17T05:42:29.138Z,99.99
2022-09-17T05:43:29.096Z,99.99
2022-09-17T05:45:33.002Z,99.99
2022-09-17T05:46:33.120Z,99.99
2022-09-17T05:48:36.849Z,99.99
2022-09-17T05:49:36.809Z,99.99
2022-09-17T05:51:40.714Z,99.99
2022-09-17T05:52:40.666Z,99.99
2022-09-17T05:54:33.485Z,99.99
2022-09-17T05:55:33.448Z,99.99
2022-09-17T05:57:37.358Z,99.99
2022-09-17T05:58:37.307Z,99.99
2022-09-17T06:00:41.199Z,99.99
2022-09-17T06:01:41.344Z,99.99
2022-09-17T06:03:34.524Z,99.99
2022-09-17T06:04:35.204Z,99.99
2022-09-17T06:06:38.367Z,99.99
2022-09-17T06:07:38.332Z,99.99
2022-09-17T06:09:42.243Z,99.99
2022-09-17T06:10:42.190Z,99.99
2022-09-17T06:12:46.077Z,99.99
2022-09-17T06:13:46.044Z,99.99
2022-09-17T06:15:49.987Z,99.99
2022-09-17T06:16:49.991Z,99.99
2022-09-17T06:18:53.800Z,99.99
2022-09-17T06:19:53.753Z,99.99
2022-09-17T06:21:58.256Z,99.99
2022-09-17T06:22:58.008Z,99.99
2022-09-17T06:25:01.696Z,99.99
2022-09-17T06:26:01.657Z,99.99
2022-09-17T06:28:05.563Z,99.99
2022-09-17T06:29:05.514Z,99.99
2022-09-17T06:31:09.519Z,99.99
2022-09-17T06:32:09.475Z,99.99
2022-09-17T06:34:02.197Z,99.99
2022-09-17T06:35:02.160Z,99.99
2022-09-17T06:37:06.070Z,99.61
2022-09-17T06:38:06.013Z,99.99
2022-09-17T06:40:10.011Z,99.99
2022-09-17T06:41:09.873Z,99.99
2022-09-17T06:43:13.768Z,99.99
2022-09-17T06:44:13.729Z,99.99
2022-09-17T06:46:17.679Z,99.99
2022-09-17T06:47:17.685Z,99.99
2022-09-17T06:49:21.483Z,99.99
2022-09-17T06:50:21.443Z,99.99
2022-09-17T06:52:25.350Z,99.99
2022-09-17T06:53:25.300Z,99.99
2022-09-17T06:55:29.197Z,99.99
2022-09-17T06:56:29.157Z,99.99
2022-09-17T06:58:33.061Z,99.99
2022-09-17T06:59:33.013Z,99.99
2022-09-17T07:01:36.974Z,99.99
2022-09-17T07:02:36.974Z,99.99
2022-09-17T07:04:29.693Z,99.99
2022-09-17T07:05:29.656Z,99.99
2022-09-17T07:07:33.560Z,99.99
2022-09-17T07:08:33.509Z,99.99
2022-09-17T07:10:37.418Z,99.99
2022-09-17T07:11:37.372Z,99.99
2022-09-17T07:13:41.273Z,99.99
2022-09-17T07:14:41.222Z,99.99
2022-09-17T07:16:45.116Z,99.99
2022-09-17T07:17:45.270Z,99.99
2022-09-17T07:19:49.000Z,99.99
2022-09-17T07:20:48.941Z,99.99
2022-09-17T07:22:52.834Z,99.99
2022-09-17T07:23:52.794Z,99.99
2022-09-17T07:25:56.706Z,99.99
2022-09-17T07:26:56.654Z,99.99
2022-09-17T07:29:00.569Z,99.99
2022-09-17T07:30:00.508Z,99.99
2022-09-17T07:32:04.416Z,99.99
2022-09-17T07:33:04.458Z,99.99
2022-09-17T07:35:08.293Z,99.99
2022-09-17T07:36:08.219Z,99.99
2022-09-17T07:38:12.118Z,99.99
2022-09-17T07:39:12.078Z,99.99
2022-09-17T07:41:15.993Z,99.99
2022-09-17T07:42:15.935Z,99.99
2022-09-17T07:44:08.757Z,99.99
2022-09-17T07:45:08.719Z,99.76
2022-09-17T07:47:12.622Z,99.80
2022-09-17T07:48:12.674Z,99.76
2022-09-17T07:50:16.472Z,99.62
2022-09-17T07:51:16.432Z,99.33
2022-09-17T07:53:20.337Z,99.71
2022-09-17T07:54:20.285Z,99.71
2022-09-17T07:56:24.192Z,98.75
2022-09-17T07:57:24.146Z,99.14
2022-09-17T07:59:28.038Z,98.94
2022-09-17T08:00:28.004Z,99.62
2022-09-17T08:02:32.036Z,99.33
2022-09-17T08:03:31.964Z,98.28
2022-09-17T08:05:35.759Z,98.66
2022-09-17T08:06:35.719Z,98.37
2022-09-17T08:08:39.708Z,97.71
2022-09-17T08:09:39.657Z,98.08
2022-09-17T08:11:58.820Z,97.80
2022-09-17T08:12:43.519Z,97.71
2022-09-17T08:14:36.345Z,97.71
2022-09-17T08:15:36.418Z,97.94
2022-09-17T08:17:40.215Z,97.85
2022-09-17T08:18:40.270Z,97.94
2022-09-17T08:20:44.068Z,97.47
2022-09-17T08:21:44.019Z,97.56
2022-09-17T08:23:36.858Z,97.37
2022-09-17T08:24:36.807Z,97.47
2022-09-17T08:26:40.707Z,97.75
2022-09-17T08:27:40.670Z,97.85
2022-09-17T08:29:44.588Z,97.75
2022-09-17T08:30:44.531Z,97.75
2022-09-17T08:32:48.445Z,97.66
2022-09-17T08:33:48.503Z,97.94
2022-09-17T08:35:52.322Z,97.94
2022-09-17T08:36:52.268Z,97.75
2022-09-17T08:38:56.315Z,97.37
2022-09-17T08:39:56.169Z,97.18
2022-09-17T08:42:00.068Z,97.23
2022-09-17T08:42:59.986Z,96.66
2022-09-17T08:45:03.886Z,96.37
2022-09-17T08:46:03.852Z,96.61
2022-09-17T08:48:07.754Z,97.33
2022-09-17T08:49:07.803Z,96.84
2022-09-17T08:51:11.608Z,96.94
2022-09-17T08:52:11.568Z,97.52
2022-09-17T08:54:04.411Z,96.18
2022-09-17T08:55:04.357Z,96.66
2022-09-17T08:57:08.262Z,97.52
2022-09-17T08:58:08.214Z,97.23
2022-09-17T09:00:12.120Z,96.56
2022-09-17T09:01:12.076Z,96.18
2022-09-17T09:03:15.981Z,96.66
2022-09-17T09:04:16.037Z,96.47
2022-09-17T09:06:19.865Z,96.94
2022-09-17T09:07:19.793Z,96.37
2022-09-17T09:09:23.690Z,96.18
2022-09-17T09:10:23.662Z,96.51
2022-09-17T09:12:27.561Z,95.51
2022-09-17T09:13:27.510Z,95.51
2022-09-17T09:15:31.409Z,95.51
2022-09-17T09:16:31.393Z,95.84
2022-09-17T09:18:35.278Z,95.89
2022-09-17T09:19:35.333Z,96.56
2022-09-17T09:21:39.151Z,95.84
2022-09-17T09:22:39.090Z,95.94
2022-09-17T09:24:31.918Z,95.36
2022-09-17T09:25:31.885Z,94.79
2022-09-17T09:27:35.792Z,95.07
2022-09-17T09:28:35.741Z,94.41
2022-09-17T09:30:39.650Z,94.21
2022-09-17T09:31:39.619Z,94.12
2022-09-17T09:33:47.767Z,94.12
2022-09-17T09:34:43.558Z,94.12
2022-09-17T09:36:47.500Z,94.65
2022-09-17T09:37:47.404Z,94.45
2022-09-17T09:39:51.347Z,93.16
2022-09-17T09:40:51.263Z,93.40
2022-09-17T09:42:55.173Z,92.73
2022-09-17T09:44:07.394Z,92.63
2022-09-17T09:45:59.029Z,92.25
2022-09-17T09:46:59.035Z,91.77
2022-09-17T09:49:02.893Z,91.82
2022-09-17T09:50:02.949Z,91.05
2022-09-17T09:52:06.749Z,90.63
2022-09-17T09:53:06.709Z,90.63
2022-09-17T09:55:10.620Z,90.72
2022-09-17T09:56:10.567Z,91.63
2022-09-17T09:58:14.466Z,91.63
2022-09-17T09:59:14.436Z,91.05
2022-09-17T10:01:18.383Z,91.05
2022-09-17T10:02:18.434Z,90.29
2022-09-17T10:04:11.119Z,89.62
2022-09-17T10:05:11.187Z,90.09
2022-09-17T10:07:14.989Z,90.24
2022-09-17T10:08:14.947Z,89.95
2022-09-17T10:10:18.901Z,91.05
2022-09-17T10:11:18.807Z,90.72
2022-09-17T10:13:22.702Z,90.72
2022-09-17T10:14:22.665Z,91.01
2022-09-17T10:16:26.704Z,91.49
2022-09-17T10:17:26.531Z,91.39
2022-09-17T10:19:30.425Z,92.54
2022-09-17T10:20:30.497Z,92.25
2022-09-17T10:22:34.297Z,92.54
2022-09-17T10:23:34.248Z,92.25
2022-09-17T10:25:38.158Z,91.01
2022-09-17T10:26:38.111Z,91.25
2022-09-17T10:28:42.008Z,91.92
2022-09-17T10:29:41.971Z,92.21
2022-09-17T10:31:45.906Z,92.78
2022-09-17T10:32:45.834Z,92.68
2022-09-17T10:34:38.670Z,92.30
2022-09-17T10:35:38.728Z,91.25
2022-09-17T10:37:42.522Z,91.20
2022-09-17T10:38:42.489Z,91.92
2022-09-17T10:40:46.397Z,90.77
2022-09-17T10:41:46.345Z,90.72
2022-09-17T10:43:39.174Z,91.25
2022-09-17T10:44:39.141Z,90.77
2022-09-17T10:46:43.123Z,91.20
2022-09-17T10:47:43.002Z,90.15
2022-09-17T10:49:46.903Z,90.82
2022-09-17T10:50:46.961Z,90.77
2022-09-17T10:52:50.777Z,90.09
2022-09-17T10:53:57.904Z,90.00
2022-09-17T10:55:54.637Z,90.23
2022-09-17T10:56:54.590Z,89.76
2022-09-17T10:58:58.661Z,89.37
2022-09-17T10:59:58.453Z,90.14
2022-09-17T11:02:02.470Z,89.71
2022-09-17T11:03:02.472Z,89.51
2022-09-17T11:04:55.161Z,88.27
2022-09-17T11:05:55.202Z,88.17
2022-09-17T11:07:59.009Z,86.74
2022-09-17T11:08:58.970Z,86.64
2022-09-17T11:11:02.878Z,86.49
2022-09-17T11:12:02.833Z,86.49
2022-09-17T11:13:55.663Z,86.78
2022-09-17T11:14:55.628Z,86.88
2022-09-17T11:16:59.546Z,86.11
2022-09-17T11:17:59.511Z,86.05
2022-09-17T11:20:03.402Z,85.19
2022-09-17T11:21:03.464Z,84.71
2022-09-17T11:23:07.281Z,83.27
2022-09-17T11:24:07.232Z,84.14
2022-09-17T11:26:11.132Z,84.48
2022-09-17T11:27:11.097Z,85.88
2022-09-17T11:28:11.066Z,86.64
2022-09-17T11:29:11.034Z,87.84
2022-09-17T11:30:11.021Z,88.08
2022-09-17T11:31:11.094Z,88.94
2022-09-17T11:32:10.945Z,89.66
2022-09-17T11:33:10.913Z,90.23
2022-09-17T11:34:10.882Z,90.19
2022-09-17T11:35:10.842Z,90.23
2022-09-17T11:36:10.911Z,90.81
2022-09-17T11:37:10.781Z,90.72
2022-09-17T11:38:10.747Z,91.25
2022-09-17T11:39:10.713Z,91.67
2022-09-17T11:40:10.794Z,90.23
2022-09-17T11:41:10.658Z,88.80
2022-09-17T11:42:10.620Z,87.80
2022-09-17T11:43:10.587Z,88.09
2022-09-17T11:44:10.554Z,87.99
2022-09-17T11:45:10.526Z,89.14
2022-09-17T11:46:10.546Z,88.95
2022-09-17T11:47:10.460Z,88.56
2022-09-17T11:48:10.428Z,89.09
2022-09-17T11:49:10.393Z,89.04
2022-09-17T11:50:10.364Z,89.43
2022-09-17T11:51:10.326Z,88.95
2022-09-17T11:52:10.396Z,89.47
2022-09-17T11:53:10.264Z,88.51
2022-09-17T11:54:10.231Z,87.74
2022-09-17T11:55:10.199Z,87.17
2022-09-17T11:56:10.165Z,86.79
2022-09-17T11:57:10.139Z,86.79
2022-09-17T11:58:10.098Z,86.12
2022-09-17T11:59:10.071Z,86.21
2022-09-17T12:00:10.037Z,86.41
2022-09-17T12:01:10.000Z,86.79
2022-09-17T12:02:09.997Z,87.37
2022-09-17T12:03:10.049Z,87.17
2022-09-17T12:04:09.911Z,87.17
2022-09-17T12:05:09.875Z,86.60
2022-09-17T12:06:09.840Z,86.41
2022-09-17T12:07:09.809Z,87.23
2022-09-17T12:08:14.408Z,87.99
2022-09-17T12:09:09.740Z,88.09
2022-09-17T12:10:09.713Z,88.85
2022-09-17T12:11:09.679Z,92.01
2022-09-17T12:12:21.713Z,94.84
2022-09-17T12:13:09.611Z,96.94
2022-09-17T12:14:09.580Z,98.24
2022-09-17T12:15:09.544Z,99.00
2022-09-17T12:16:09.570Z,99.99
2022-09-17T12:17:09.481Z,99.99
2022-09-17T12:18:31.289Z,99.99
2022-09-17T12:19:09.418Z,99.99
2022-09-17T12:20:09.380Z,99.99
2022-09-17T12:21:09.351Z,99.99
2022-09-17T12:22:09.312Z,99.76
2022-09-17T12:23:09.326Z,99.15
2022-09-17T12:24:09.355Z,98.47
2022-09-17T12:25:09.218Z,98.81
2022-09-17T12:26:09.184Z,98.52
2022-09-17T12:27:09.145Z,98.19
2022-09-17T12:28:09.118Z,96.47
2022-09-17T12:29:09.086Z,96.27
2022-09-17T12:30:09.136Z,95.60
2022-09-17T12:31:09.147Z,95.70
2022-09-17T12:32:08.986Z,95.03
2022-09-17T12:33:08.951Z,95.60
2022-09-17T12:34:09.030Z,94.98
2022-09-17T12:35:08.887Z,95.12
2022-09-17T12:36:08.853Z,93.59
2022-09-17T12:37:08.822Z,93.78
2022-09-17T12:38:08.791Z,94.12
2022-09-17T12:39:08.758Z,91.67
2022-09-17T12:40:08.887Z,90.85
2022-09-17T12:41:08.696Z,91.05
2022-09-17T12:42:08.664Z,89.79
2022-09-17T12:43:08.636Z,90.37
2022-09-17T12:44:08.600Z,89.99
2022-09-17T12:45:08.572Z,90.14
2022-09-17T12:46:08.660Z,90.37
2022-09-17T12:47:08.506Z,90.28
2022-09-17T12:48:08.478Z,89.75
2022-09-17T12:49:08.441Z,88.74
2022-09-17T12:50:08.416Z,87.98
2022-09-17T12:51:08.385Z,87.59
2022-09-17T12:52:08.351Z,85.53
2022-09-17T12:53:08.314Z,86.68
2022-09-17T12:54:08.284Z,86.54
2022-09-17T12:55:08.253Z,85.86
2022-09-17T12:56:08.327Z,86.05
2022-09-17T12:57:08.192Z,84.61
2022-09-17T12:58:08.162Z,84.75
2022-09-17T12:59:08.131Z,85.67
2022-09-17T13:00:08.462Z,85.67
2022-09-17T13:01:08.150Z,85.71
2022-09-17T13:02:08.063Z,84.04
2022-09-17T13:03:08.016Z,83.75
2022-09-17T13:04:07.976Z,84.00
2022-09-17T13:05:07.948Z,84.48
2022-09-17T13:06:07.938Z,84.58
2022-09-17T13:07:07.882Z,85.72
2022-09-17T13:08:07.858Z,85.67
2022-09-17T13:09:07.822Z,85.92
2022-09-17T13:10:07.798Z,85.92
2022-09-17T13:11:07.758Z,86.30
2022-09-17T13:12:07.829Z,86.78
2022-09-17T13:13:07.700Z,87.01
2022-09-17T13:14:07.668Z,86.01
2022-09-17T13:15:07.633Z,85.58
2022-09-17T13:16:10.156Z,85.67
2022-09-17T13:17:07.574Z,85.62
2022-09-17T13:18:23.708Z,84.33
2022-09-17T13:19:23.395Z,84.09
2022-09-17T13:20:07.476Z,84.23
2022-09-17T13:21:07.445Z,83.37
2022-09-17T13:22:07.413Z,83.60
2022-09-17T13:23:07.384Z,83.51
2022-09-17T13:24:07.353Z,83.51
2022-09-17T13:25:07.323Z,83.60
2022-09-17T13:26:07.297Z,84.61
2022-09-17T13:27:07.263Z,84.85
2022-09-17T13:28:07.330Z,84.56
2022-09-17T13:29:07.251Z,84.89
2022-09-17T13:30:07.168Z,84.41
2022-09-17T13:31:07.161Z,84.22
2022-09-17T13:32:07.108Z,84.56
2022-09-17T13:33:07.078Z,85.18
2022-09-17T13:34:07.043Z,85.71
2022-09-17T13:35:07.021Z,86.09
2022-09-17T13:36:06.987Z,85.47
2022-09-17T13:37:06.957Z,86.28
2022-09-17T13:38:06.928Z,86.09
2022-09-17T13:39:06.892Z,84.59
2022-09-17T13:40:06.952Z,83.01
2022-09-17T13:41:06.865Z,82.92
2022-09-17T13:42:06.803Z,82.82
2022-09-17T13:43:06.792Z,81.87
2022-09-17T13:44:06.859Z,81.82
2022-09-17T13:45:09.954Z,81.53
2022-09-17T13:46:06.740Z,81.72
2022-09-17T13:47:06.655Z,81.72
2022-09-17T13:48:06.649Z,82.20
2022-09-17T13:49:06.595Z,83.84
2022-09-17T13:50:06.566Z,83.45
2022-09-17T13:51:06.534Z,82.87
2022-09-17T13:52:10.271Z,82.68
2022-09-17T13:53:06.475Z,82.30
2022-09-17T13:54:06.488Z,82.10
2022-09-17T13:55:06.416Z,81.34
2022-09-17T13:56:06.389Z,81.86
2022-09-17T13:57:06.353Z,81.57
2022-09-17T13:58:06.332Z,82.05
2022-09-17T13:59:06.297Z,82.05
2022-09-17T14:00:06.373Z,81.19
2022-09-17T14:01:06.277Z,81.38
2022-09-17T14:02:06.253Z,80.80
2022-09-17T14:03:06.224Z,81.48
2022-09-17T14:04:06.206Z,81.19
2022-09-17T14:05:06.136Z,81.28
2022-09-17T14:06:06.091Z,81.32
2022-09-17T14:07:06.056Z,81.13
2022-09-17T14:08:06.125Z,79.98
2022-09-17T14:09:05.998Z,79.40
2022-09-17T14:10:05.969Z,79.02
2022-09-17T14:11:05.939Z,78.83
2022-09-17T14:12:05.909Z,78.73
2022-09-17T14:13:05.882Z,78.83
2022-09-17T14:14:05.848Z,79.65
2022-09-17T14:15:05.821Z,80.13
2022-09-17T14:16:05.968Z,79.84
2022-09-17T14:17:05.759Z,80.71
2022-09-17T14:18:05.732Z,80.22
2022-09-17T14:19:05.706Z,79.65
2022-09-17T14:20:05.707Z,79.46
2022-09-17T14:21:05.657Z,79.07
2022-09-17T14:22:05.611Z,79.55
2022-09-17T14:23:05.581Z,80.46
2022-09-17T14:24:05.553Z,79.69
2022-09-17T14:25:05.525Z,78.83
2022-09-17T14:26:05.491Z,78.73
2022-09-17T14:27:05.463Z,78.19
2022-09-17T14:28:05.437Z,77.42
2022-09-17T14:29:05.408Z,78.00
2022-09-17T14:30:05.381Z,77.75
2022-09-17T14:31:05.397Z,77.36
2022-09-17T14:32:05.418Z,77.81
2022-09-17T14:33:05.288Z,78.90
2022-09-17T14:34:05.259Z,77.86
2022-09-17T14:35:05.225Z,77.86
2022-09-17T14:36:05.194Z,78.69
2022-09-17T14:37:05.165Z,78.69
2022-09-17T14:38:05.137Z,78.73
2022-09-17T14:39:05.109Z,78.40
2022-09-17T14:40:05.108Z,78.78
2022-09-17T14:41:05.051Z,78.69
2022-09-17T14:42:05.021Z,78.34
2022-09-17T14:43:04.991Z,77.86
2022-09-17T14:44:04.961Z,77.48
2022-09-17T14:45:04.981Z,77.61
2022-09-17T14:46:05.013Z,77.33
2022-09-17T14:47:04.959Z,77.38
2022-09-17T14:48:04.946Z,77.98
2022-09-17T14:49:04.817Z,79.03
2022-09-17T14:50:04.813Z,79.76
2022-09-17T14:51:04.756Z,79.67
2022-09-17T14:52:04.726Z,80.05
2022-09-17T14:53:04.696Z,80.91
2022-09-17T14:54:04.665Z,81.35
2022-09-17T14:55:04.653Z,82.60
2022-09-17T14:56:04.605Z,83.91
2022-09-17T14:57:04.574Z,84.00
2022-09-17T14:58:04.546Z,83.75
2022-09-17T14:59:04.515Z,84.14
2022-09-17T15:00:08.831Z,84.66
2022-09-17T15:01:04.448Z,83.98
2022-09-17T15:02:04.520Z,83.54
2022-09-17T15:03:04.422Z,83.54
2022-09-17T15:04:04.648Z,82.49
2022-09-17T15:05:04.339Z,82.93
2022-09-17T15:06:04.302Z,83.80
2022-09-17T15:07:04.272Z,82.74
2022-09-17T15:08:04.237Z,83.56
2022-09-17T15:09:04.203Z,84.52
2022-09-17T15:10:04.175Z,85.48
2022-09-17T15:11:04.144Z,85.53
2022-09-17T15:12:04.112Z,85.63
2022-09-17T15:13:07.683Z,85.72
2022-09-17T15:14:04.079Z,85.86
2022-09-17T15:15:04.017Z,84.61
2022-09-17T15:16:04.019Z,85.10
2022-09-17T15:17:03.966Z,84.42
2022-09-17T15:18:03.924Z,85.10
2022-09-17T15:19:03.903Z,85.19
2022-09-17T15:20:03.966Z,84.91
2022-09-17T15:21:03.835Z,84.61
2022-09-17T15:22:03.805Z,84.71
2022-09-17T15:23:03.770Z,84.42
2022-09-17T15:24:03.741Z,83.85
2022-09-17T15:25:03.704Z,84.09
2022-09-17T15:26:03.681Z,84.23
2022-09-17T15:27:03.644Z,84.33
2022-09-17T15:28:03.612Z,83.94
2022-09-17T15:29:03.587Z,82.60
2022-09-17T15:30:03.557Z,82.21
2022-09-17T15:31:03.547Z,82.94
2022-09-17T15:32:03.487Z,83.14
2022-09-17T15:33:03.454Z,83.23
2022-09-17T15:34:03.423Z,84.00
2022-09-17T15:35:03.393Z,84.95
2022-09-17T15:36:03.459Z,85.25
2022-09-17T15:37:03.328Z,84.48
2022-09-17T15:38:22.896Z,84.58
2022-09-17T15:39:03.265Z,83.81
2022-09-17T15:40:03.262Z,84.09
2022-09-17T15:41:03.199Z,83.91
2022-09-17T15:42:03.170Z,83.91
2022-09-17T15:43:03.136Z,83.61
2022-09-17T15:44:19.114Z,83.42
2022-09-17T15:45:03.077Z,82.89
2022-09-17T15:46:03.046Z,82.70
2022-09-17T15:47:03.012Z,82.74
2022-09-17T15:48:04.314Z,84.33
2022-09-17T15:49:03.011Z,85.53
2022-09-17T15:50:02.942Z,86.88
2022-09-17T15:51:02.881Z,88.17
2022-09-17T15:52:02.956Z,86.30
2022-09-17T15:53:02.820Z,87.16
2022-09-17T15:54:02.792Z,88.12
2022-09-17T15:55:02.759Z,89.03
2022-09-17T15:56:02.731Z,87.16
2022-09-17T15:57:02.700Z,87.30
2022-09-17T15:58:02.741Z,87.21
2022-09-17T15:59:02.632Z,87.16
2022-09-17T16:00:02.682Z,88.31
2022-09-17T16:01:02.571Z,88.12
2022-09-17T16:02:02.670Z,89.37
2022-09-17T16:03:02.558Z,89.32
2022-09-17T16:04:02.479Z,90.09
2022-09-17T16:05:02.443Z,90.09
2022-09-17T16:06:04.734Z,90.28
2022-09-17T16:07:02.377Z,90.05
2022-09-17T16:08:02.457Z,90.91
2022-09-17T16:09:02.317Z,91.39
2022-09-17T16:10:02.364Z,91.82
2022-09-17T16:11:02.250Z,91.43
2022-09-17T16:12:02.218Z,91.14
2022-09-17T16:13:02.190Z,91.19
2022-09-17T16:14:02.155Z,91.86
2022-09-17T16:15:02.131Z,91.49
2022-09-17T16:16:02.153Z,91.92
2022-09-17T16:17:02.060Z,92.11
2022-09-17T16:18:02.028Z,92.25
2022-09-17T16:19:02.104Z,91.34
2022-09-17T16:20:06.024Z,91.53
2022-09-17T16:21:01.928Z,92.30
2022-09-17T16:22:01.897Z,92.68
2022-09-17T16:23:01.861Z,93.45
2022-09-17T16:24:01.937Z,93.35
2022-09-17T16:25:01.803Z,93.07
2022-09-17T16:26:01.773Z,93.45
2022-09-17T16:27:01.738Z,92.87
2022-09-17T16:28:01.707Z,93.35
2022-09-17T16:29:01.676Z,92.97
2022-09-17T16:30:01.702Z,93.79
2022-09-17T16:31:01.654Z,93.74
2022-09-17T16:32:01.574Z,93.83
2022-09-17T16:33:01.545Z,93.88
2022-09-17T16:34:02.234Z,94.07
2022-09-17T16:35:01.476Z,94.02
2022-09-17T16:36:01.442Z,93.98
2022-09-17T16:37:01.406Z,93.88
2022-09-17T16:38:01.380Z,93.88
2022-09-17T16:39:01.349Z,94.07
2022-09-17T16:40:01.571Z,93.88
2022-09-17T16:41:01.284Z,93.79
2022-09-17T16:42:01.251Z,94.26
2022-09-17T16:43:01.216Z,94.02
2022-09-17T16:44:01.184Z,93.83
2022-09-17T16:45:01.676Z,93.35
2022-09-17T16:46:01.116Z,93.45
2022-09-17T16:47:01.738Z,93.35
2022-09-17T16:48:01.055Z,93.35